Time;durP1;ratioP1;P1;durP2;ratioP2;P2;SDS_P1;SDS_P2;PMS_P1;PMS_P2;Temp;Humidity;BMP_temperature;BMP_pressure;BME280_temperature;BME280_humidity;BME280_pressure;Samples;Min_cycle;Max_cycle;Signal;HPM_P1;HPM_P2
2022/09/23 05:01:56;;;;;;;4.67;3.40;;;;;;;;;;5452868;22;20572;-86
2022/09/23 05:04:22;;;;;;;4.82;3.75;;;;;;;;;;5087374;28;20485;-86
2022/09/23 05:06:48;;;;;;;4.70;4.30;;;;;;;;;;5089290;28;20864;-86
2022/09/23 05:09:16;;;;;;;4.60;4.17;;;;;;;;;;5089972;28;20370;-86
2022/09/23 05:11:42;;;;;;;4.97;4.10;;;;;;;;;;5081014;28;20383;-86
2022/09/23 05:14:08;;;;;;;4.15;3.75;;;;;;;;;;5071704;28;20383;-86
2022/09/23 05:16:34;;;;;;;3.60;3.30;;;;;;;;;;5053655;28;20427;-86
2022/09/23 05:19:02;;;;;;;3.03;2.72;;;;;;;;;;5071075;28;20379;-86
2022/09/23 05:21:30;;;;;;;2.70;2.50;;;;;;;;;;5070790;28;20383;-86
2022/09/23 05:23:59;;;;;;;2.65;2.35;;;;;;;;;;5071117;28;20379;-87
2022/09/23 05:26:26;;;;;;;2.63;2.43;;;;;;;;;;5071799;28;20804;-87
2022/09/23 05:28:53;;;;;;;2.47;2.30;;;;;;;;;;5073650;28;20371;-87
2022/09/23 05:31:23;;;;;;;4.30;2.65;;;;;;;;;;5075502;28;20429;-87
2022/09/23 05:33:56;;;;;;;3.25;2.53;;;;;;;;;;5074455;28;20378;-87
2022/09/23 05:36:23;;;;;;;3.05;2.50;;;;;;;;;;5074690;28;20433;-85
2022/09/23 05:38:50;;;;;;;3.58;2.80;;;;;;;;;;5073377;28;20445;-85
2022/09/23 05:41:16;;;;;;;2.90;2.45;;;;;;;;;;5074984;28;20383;-85
2022/09/23 05:43:42;;;;;;;2.78;2.58;;;;;;;;;;5075540;28;20372;-85
2022/09/23 05:46:12;;;;;;;3.63;2.60;;;;;;;;;;5074934;28;20482;-87
2022/09/23 05:48:39;;;;;;;3.88;2.83;;;;;;;;;;5075105;28;20802;-86
2022/09/23 05:51:10;;;;;;;3.28;2.97;;;;;;;;;;5075098;28;20382;-86
2022/09/23 05:53:36;;;;;;;4.25;2.80;;;;;;;;;;5076213;28;20379;-87
2022/09/23 05:56:03;;;;;;;3.13;2.87;;;;;;;;;;5074827;28;20383;-86
2022/09/23 05:58:29;;;;;;;3.42;2.83;;;;;;;;;;5075009;28;20415;-86
2022/09/23 06:00:55;;;;;;;3.10;2.80;;;;;;;;;;5074463;28;20368;-86
2022/09/23 06:03:22;;;;;;;4.03;3.10;;;;;;;;;;5075139;28;20399;-86
2022/09/23 06:05:51;;;;;;;3.42;3.10;;;;;;;;;;5074790;28;20375;-86
2022/09/23 06:08:17;;;;;;;4.20;3.17;;;;;;;;;;5074991;28;20387;-86
2022/09/23 06:10:45;;;;;;;4.28;3.33;;;;;;;;;;5074874;28;20380;-85
2022/09/23 06:13:11;;;;;;;3.47;3.17;;;;;;;;;;5074644;28;20399;-86
2022/09/23 06:15:37;;;;;;;3.65;3.35;;;;;;;;;;5073281;28;20375;-86
2022/09/23 06:18:04;;;;;;;6.68;3.55;;;;;;;;;;5074520;28;20807;-85
2022/09/23 06:20:30;;;;;;;3.97;3.55;;;;;;;;;;5077293;28;20732;-87
2022/09/23 06:23:02;;;;;;;6.43;3.92;;;;;;;;;;5074594;28;20406;-86
2022/09/23 06:25:28;;;;;;;6.55;4.00;;;;;;;;;;5075060;28;20748;-87
2022/09/23 06:27:54;;;;;;;5.25;3.50;;;;;;;;;;5074501;28;20384;-86
2022/09/23 06:30:23;;;;;;;4.30;3.90;;;;;;;;;;5074503;28;20524;-86
2022/09/23 06:32:50;;;;;;;4.05;3.75;;;;;;;;;;5072910;28;20404;-86
2022/09/23 06:35:17;;;;;;;4.10;3.70;;;;;;;;;;5059513;28;20395;-86
2022/09/23 06:37:43;;;;;;;4.15;3.83;;;;;;;;;;5059306;28;20383;-87
2022/09/23 06:40:09;;;;;;;4.50;3.80;;;;;;;;;;4991740;28;20432;-87
2022/09/23 06:42:35;;;;;;;4.30;3.90;;;;;;;;;;4991898;28;20387;-87
2022/09/23 06:45:01;;;;;;;6.07;4.45;;;;;;;;;;5059077;28;20479;-86
2022/09/23 06:47:28;;;;;;;4.38;3.97;;;;;;;;;;5059017;28;20536;-86
2022/09/23 06:49:54;;;;;;;4.77;4.37;;;;;;;;;;4991690;28;20870;-86
2022/09/23 06:52:20;;;;;;;4.30;3.90;;;;;;;;;;5058845;28;20985;-86
2022/09/23 06:54:49;;;;;;;5.32;4.30;;;;;;;;;;5073099;28;20407;-85
2022/09/23 06:57:16;;;;;;;5.10;4.30;;;;;;;;;;5073843;28;20383;-88
2022/09/23 06:59:42;;;;;;;4.50;4.10;;;;;;;;;;5055414;28;20379;-90
2022/09/23 07:02:08;;;;;;;4.87;3.90;;;;;;;;;;5055415;28;20480;-89
2022/09/23 07:04:35;;;;;;;3.80;3.50;;;;;;;;;;5073589;28;20383;-89
2022/09/23 07:07:01;;;;;;;4.93;4.20;;;;;;;;;;5060507;28;20441;-88
2022/09/23 07:09:27;;;;;;;5.33;3.77;;;;;;;;;;5073486;28;20387;-88
2022/09/23 07:11:53;;;;;;;4.90;4.40;;;;;;;;;;5073673;28;20431;-92
2022/09/23 07:14:19;;;;;;;4.82;4.32;;;;;;;;;;5059138;28;20437;-91
2022/09/23 07:16:48;;;;;;;4.50;4.15;;;;;;;;;;4991337;28;20398;-89
2022/09/23 07:19:14;;;;;;;5.80;4.28;;;;;;;;;;4992154;28;20872;-88
2022/09/23 07:21:40;;;;;;;5.00;3.95;;;;;;;;;;5072873;28;20382;-90
2022/09/23 07:24:06;;;;;;;5.47;3.93;;;;;;;;;;5059730;28;20390;-88
2022/09/23 07:26:32;;;;;;;5.38;4.20;;;;;;;;;;5057631;28;20469;-88
2022/09/23 07:29:03;;;;;;;5.00;4.53;;;;;;;;;;5053524;28;20381;-91
2022/09/23 07:31:29;;;;;;;4.93;4.05;;;;;;;;;;5053192;28;20377;-88
2022/09/23 07:33:56;;;;;;;4.87;4.37;;;;;;;;;;5055270;28;20977;-89
2022/09/23 07:36:23;;;;;;;4.85;4.45;;;;;;;;;;5056893;28;20385;-89
2022/09/23 07:38:49;;;;;;;4.93;4.45;;;;;;;;;;5052399;28;20413;-89
2022/09/23 07:41:16;;;;;;;5.50;5.00;;;;;;;;;;5052683;28;20784;-90
2022/09/23 07:43:43;;;;;;;5.97;5.47;;;;;;;;;;5054902;28;20496;-89
2022/09/23 07:46:10;;;;;;;6.73;5.50;;;;;;;;;;5062199;28;20403;-89
2022/09/23 07:48:37;;;;;;;8.63;6.93;;;;;;;;;;5051310;28;20400;-89
2022/09/23 07:51:07;;;;;;;10.65;8.52;;;;;;;;;;5054446;28;20855;-88
2022/09/23 07:53:33;;;;;;;15.05;10.15;;;;;;;;;;5062325;28;20976;-89
2022/09/23 07:55:59;;;;;;;16.63;10.60;;;;;;;;;;5053092;28;20936;-88
2022/09/23 07:58:25;;;;;;;12.38;9.98;;;;;;;;;;5068667;28;20380;-89
2022/09/23 08:00:52;;;;;;;12.32;9.40;;;;;;;;;;5068987;28;20453;-90
2022/09/23 08:03:18;;;;;;;13.02;9.98;;;;;;;;;;5062658;28;20492;-89
2022/09/23 08:05:45;;;;;;;14.40;9.10;;;;;;;;;;5057841;28;20383;-88
2022/09/23 08:08:12;;;;;;;12.37;8.67;;;;;;;;;;5064907;28;20387;-88
2022/09/23 08:10:38;;;;;;;10.90;8.98;;;;;;;;;;5069304;28;20384;-89
2022/09/23 08:13:04;;;;;;;15.07;10.48;;;;;;;;;;5060782;28;20409;-90
2022/09/23 08:15:30;;;;;;;14.73;10.13;;;;;;;;;;5059601;28;20398;-89
2022/09/23 08:17:58;;;;;;;16.85;10.93;;;;;;;;;;5057558;28;20398;-89
2022/09/23 08:20:43;;;;;;;10.32;8.75;;;;;;;;;;5054355;28;20423;-89
2022/09/23 08:23:09;;;;;;;13.85;9.90;;;;;;;;;;5038647;28;20416;-88
2022/09/23 08:25:35;;;;;;;11.80;9.35;;;;;;;;;;5053580;28;20390;-89
2022/09/23 08:28:02;;;;;;;12.87;9.13;;;;;;;;;;5054590;28;20468;-88
2022/09/23 08:30:27;;;;;;;9.77;8.25;;;;;;;;;;5055477;28;20395;-89
2022/09/23 08:32:53;;;;;;;9.82;8.80;;;;;;;;;;5069403;28;20412;-89
2022/09/23 08:35:19;;;;;;;9.30;8.37;;;;;;;;;;5059553;28;20869;-88
2022/09/23 08:37:46;;;;;;;9.80;8.80;;;;;;;;;;5072549;28;20372;-88
2022/09/23 08:40:12;;;;;;;8.80;7.97;;;;;;;;;;5072088;28;20383;-90
2022/09/23 08:42:39;;;;;;;9.02;8.02;;;;;;;;;;5072077;28;20387;-89
2022/09/23 08:45:09;;;;;;;8.68;7.85;;;;;;;;;;5059249;28;20458;-88
2022/09/23 08:47:42;;;;;;;8.93;8.00;;;;;;;;;;5072178;28;20376;-89
2022/09/23 08:50:15;;;;;;;9.88;8.50;;;;;;;;;;5071978;28;20379;-89
2022/09/23 08:52:49;;;;;;;9.75;8.65;;;;;;;;;;5070897;28;20887;-90
2022/09/23 08:55:15;;;;;;;8.70;8.00;;;;;;;;;;5069730;28;20368;-88
2022/09/23 08:57:44;;;;;;;11.18;8.10;;;;;;;;;;5050402;28;20378;-89
2022/09/23 09:00:34;;;;;;;8.63;7.82;;;;;;;;;;5053698;28;20871;-89
2022/09/23 09:03:00;;;;;;;9.00;8.10;;;;;;;;;;5052959;28;20401;-89
2022/09/23 09:05:27;;;;;;;10.35;9.35;;;;;;;;;;5056752;28;20788;-88
2022/09/23 09:07:55;;;;;;;8.95;7.85;;;;;;;;;;5058351;28;20443;-89
2022/09/23 09:10:23;;;;;;;8.93;7.15;;;;;;;;;;5069030;28;20386;-89
2022/09/23 09:13:15;;;;;;;8.30;7.50;;;;;;;;;;5075590;28;20954;-89
2022/09/23 09:15:48;;;;;;;8.98;8.10;;;;;;;;;;5076083;28;20372;-91
2022/09/23 09:18:14;;;;;;;9.15;8.32;;;;;;;;;;5083221;28;20413;-90
2022/09/23 09:21:07;;;;;;;9.30;8.30;;;;;;;;;;5064840;28;20375;-90
2022/09/23 09:23:33;;;;;;;9.73;7.85;;;;;;;;;;5067337;28;20395;-89
2022/09/23 09:26:00;;;;;;;9.13;8.23;;;;;;;;;;5058091;28;20385;-89
2022/09/23 09:28:32;;;;;;;8.93;7.90;;;;;;;;;;5075750;28;20375;-89
2022/09/23 09:31:22;;;;;;;8.93;7.68;;;;;;;;;;5057507;28;20777;-90
2022/09/23 09:34:05;;;;;;;7.60;6.90;;;;;;;;;;5065452;28;21003;-88
2022/09/23 09:36:50;;;;;;;8.10;7.40;;;;;;;;;;5075450;28;20384;-90
2022/09/23 09:39:16;;;;;;;9.80;8.23;;;;;;;;;;5075515;28;20383;-88
2022/09/23 09:41:47;;;;;;;8.52;7.63;;;;;;;;;;5074951;28;20371;-89
2022/09/23 09:44:25;;;;;;;9.10;8.40;;;;;;;;;;5073192;28;20392;-88
2022/09/23 09:46:55;;;;;;;8.20;7.40;;;;;;;;;;5074797;28;20856;-88
2022/09/23 09:49:28;;;;;;;8.32;7.53;;;;;;;;;;5075123;28;20399;-89
2022/09/23 09:52:13;;;;;;;8.25;7.45;;;;;;;;;;5074983;28;20465;-88
2022/09/23 09:54:39;;;;;;;8.45;7.75;;;;;;;;;;5075123;28;20374;-89
2022/09/23 09:57:10;;;;;;;8.40;7.70;;;;;;;;;;5080723;28;20383;-87
2022/09/23 09:59:43;;;;;;;7.93;7.30;;;;;;;;;;5067669;28;20384;-90
2022/09/23 10:02:21;;;;;;;7.90;7.07;;;;;;;;;;5058418;28;20397;-89
2022/09/23 10:04:53;;;;;;;7.80;7.20;;;;;;;;;;5064935;28;20393;-88
2022/09/23 10:07:23;;;;;;;7.57;6.97;;;;;;;;;;5059472;28;20377;-89
2022/09/23 10:09:50;;;;;;;8.40;7.60;;;;;;;;;;5066395;28;20467;-88
2022/09/23 10:12:18;;;;;;;7.75;7.05;;;;;;;;;;5061154;28;20416;-90
2022/09/23 10:14:45;;;;;;;7.95;7.22;;;;;;;;;;5060191;28;20386;-87
2022/09/23 10:17:15;;;;;;;8.10;7.35;;;;;;;;;;5073336;28;20459;-89
2022/09/23 10:19:45;;;;;;;8.27;7.57;;;;;;;;;;5062199;28;20403;-90
2022/09/23 10:22:23;;;;;;;7.95;7.25;;;;;;;;;;5074412;28;20402;-88
2022/09/23 10:24:51;;;;;;;8.45;7.75;;;;;;;;;;5080624;28;20376;-88
2022/09/23 10:27:25;;;;;;;8.60;7.65;;;;;;;;;;5070763;28;20424;-87
2022/09/23 10:29:54;;;;;;;8.15;7.38;;;;;;;;;;5067492;28;20463;-89
2022/09/23 10:32:25;;;;;;;8.63;7.80;;;;;;;;;;5073327;28;20431;-89
2022/09/23 10:34:53;;;;;;;7.90;7.18;;;;;;;;;;5072890;28;20387;-88
2022/09/23 10:37:55;;;;;;;7.93;7.20;;;;;;;;;;5074429;28;20376;-88
2022/09/23 10:46:37;;;;;;;9.13;7.22;;;;;;;;;;5074615;28;20920;-92
2022/09/23 10:49:22;;;;;;;9.57;7.53;;;;;;;;;;5072565;28;20390;-91
2022/09/23 10:52:06;;;;;;;8.02;7.32;;;;;;;;;;5074022;28;20903;-91
2022/09/23 10:54:51;;;;;;;7.55;6.80;;;;;;;;;;5074261;28;20376;-90
2022/09/23 10:57:39;;;;;;;8.10;7.30;;;;;;;;;;5074027;28;20428;-92
2022/09/23 11:00:24;;;;;;;8.13;7.30;;;;;;;;;;5073733;28;20411;-91
2022/09/23 11:03:08;;;;;;;7.50;6.77;;;;;;;;;;5073905;28;20445;-92
2022/09/23 11:05:55;;;;;;;9.43;7.25;;;;;;;;;;5073640;28;20462;-91
2022/09/23 11:08:21;;;;;;;7.80;7.00;;;;;;;;;;5065081;28;20453;-90
2022/09/23 11:11:00;;;;;;;9.65;8.32;;;;;;;;;;5077588;28;20371;-89
2022/09/23 11:13:44;;;;;;;7.50;6.80;;;;;;;;;;5073728;28;20411;-92
2022/09/23 11:16:19;;;;;;;6.72;6.13;;;;;;;;;;5073676;28;20367;-89
2022/09/23 11:18:54;;;;;;;12.10;6.60;;;;;;;;;;5072603;28;20383;-90
2022/09/23 11:21:36;;;;;;;10.75;6.45;;;;;;;;;;5053177;28;20406;-90
2022/09/23 11:24:11;;;;;;;6.78;6.18;;;;;;;;;;5078466;28;20389;-91
2022/09/23 11:26:52;;;;;;;6.93;6.07;;;;;;;;;;5066798;28;20465;-90
2022/09/23 11:29:35;;;;;;;7.30;5.35;;;;;;;;;;5054258;28;20381;-89
2022/09/23 11:32:01;;;;;;;6.43;5.35;;;;;;;;;;5073320;28;20408;-89
2022/09/23 11:34:27;;;;;;;6.40;5.75;;;;;;;;;;5072708;28;20376;-91
2022/09/23 11:36:57;;;;;;;5.70;5.20;;;;;;;;;;5073290;28;20457;-89
2022/09/23 11:39:32;;;;;;;14.77;6.20;;;;;;;;;;5072217;28;20462;-88
2022/09/23 11:41:59;;;;;;;6.78;5.65;;;;;;;;;;5071410;28;20376;-89
2022/09/23 11:44:28;;;;;;;13.15;5.78;;;;;;;;;;5073092;28;20387;-88
2022/09/23 11:46:57;;;;;;;9.43;5.20;;;;;;;;;;5061318;28;20391;-89
2022/09/23 11:49:34;;;;;;;6.43;4.57;;;;;;;;;;5063652;28;20379;-89
2022/09/23 11:52:13;;;;;;;6.05;5.07;;;;;;;;;;5072612;28;20404;-91
2022/09/23 11:54:45;;;;;;;5.22;4.70;;;;;;;;;;5054612;28;20780;-90
2022/09/23 11:57:40;;;;;;;5.25;3.80;;;;;;;;;;5072658;28;20390;-90
2022/09/23 12:00:07;;;;;;;7.00;4.60;;;;;;;;;;5055437;28;20376;-90
2022/09/23 12:02:42;;;;;;;5.90;4.25;;;;;;;;;;5072470;28;20392;-89
2022/09/23 12:05:11;;;;;;;6.47;4.20;;;;;;;;;;5072632;28;20375;-88
2022/09/23 12:07:52;;;;;;;7.95;4.63;;;;;;;;;;5072903;28;20840;-91
2022/09/23 12:10:18;;;;;;;7.22;4.25;;;;;;;;;;5072294;28;20384;-89
2022/09/23 12:12:54;;;;;;;4.88;4.00;;;;;;;;;;5072435;28;20764;-90
2022/09/23 12:15:20;;;;;;;5.63;3.95;;;;;;;;;;5072965;28;20418;-90
2022/09/23 12:18:00;;;;;;;7.55;4.10;;;;;;;;;;5072018;28;20488;-90
2022/09/23 12:20:46;;;;;;;8.05;3.60;;;;;;;;;;5072563;28;20383;-89
2022/09/23 12:23:30;;;;;;;8.13;3.88;;;;;;;;;;5072186;28;20387;-88
2022/09/23 12:26:00;;;;;;;14.95;3.70;;;;;;;;;;5072337;28;20376;-91
2022/09/23 12:28:26;;;;;;;6.85;3.35;;;;;;;;;;4991200;28;20783;-90
2022/09/23 12:30:53;;;;;;;5.63;3.15;;;;;;;;;;4990287;28;20383;-89
2022/09/23 12:33:23;;;;;;;3.20;2.90;;;;;;;;;;5027266;28;20481;-89
2022/09/23 12:35:49;;;;;;;9.57;2.88;;;;;;;;;;5080655;28;20375;-89
2022/09/23 12:38:29;;;;;;;4.80;3.00;;;;;;;;;;5072129;28;20417;-90
2022/09/23 12:40:56;;;;;;;3.85;2.63;;;;;;;;;;5072015;28;20848;-89
2022/09/23 12:43:36;;;;;;;3.38;2.75;;;;;;;;;;5072220;28;20376;-90
2022/09/23 12:46:18;;;;;;;4.30;2.22;;;;;;;;;;5072363;28;20403;-89
2022/09/23 12:49:03;;;;;;;4.72;2.03;;;;;;;;;;5072160;28;20424;-89
2022/09/23 12:51:30;;;;;;;2.72;1.92;;;;;;;;;;5071991;28;20376;-88
2022/09/23 12:53:58;;;;;;;4.10;1.92;;;;;;;;;;5072034;28;20741;-89
2022/09/23 12:56:47;;;;;;;7.60;2.40;;;;;;;;;;5072035;28;20509;-89
2022/09/23 12:59:16;;;;;;;4.28;2.10;;;;;;;;;;5072230;28;20383;-90
2022/09/23 13:01:42;;;;;;;3.22;1.88;;;;;;;;;;5071918;28;20865;-89
2022/09/23 13:07:17;;;;;;;3.25;1.90;;;;;;;;;;5072212;28;20494;-89
2022/09/23 13:09:48;;;;;;;3.20;1.73;;;;;;;;;;5072022;28;20440;-89
2022/09/23 13:12:19;;;;;;;4.07;1.90;;;;;;;;;;5071847;28;20406;-90
2022/09/23 13:14:46;;;;;;;4.00;2.20;;;;;;;;;;5071928;28;20461;-90
2022/09/23 13:17:23;;;;;;;7.13;1.92;;;;;;;;;;5072072;28;20805;-90
2022/09/23 13:19:58;;;;;;;3.67;1.92;;;;;;;;;;5071929;28;20383;-90
2022/09/23 13:22:40;;;;;;;2.53;1.90;;;;;;;;;;5071931;28;20386;-90
2022/09/23 13:25:15;;;;;;;3.30;1.95;;;;;;;;;;5071961;28;20376;-91
2022/09/23 13:27:43;;;;;;;6.15;2.10;;;;;;;;;;5071685;28;20372;-90
2022/09/23 13:30:11;;;;;;;3.60;2.20;;;;;;;;;;5071796;28;20380;-90
2022/09/23 13:32:40;;;;;;;7.20;2.10;;;;;;;;;;5071625;28;20407;-91
2022/09/23 13:35:16;;;;;;;5.03;2.42;;;;;;;;;;5070160;28;20379;-90
2022/09/23 13:37:47;;;;;;;2.10;1.87;;;;;;;;;;5071722;28;20379;-89
2022/09/23 13:40:22;;;;;;;3.63;2.17;;;;;;;;;;5071377;28;20379;-92
2022/09/23 13:42:58;;;;;;;3.35;2.30;;;;;;;;;;5071738;28;20380;-89
2022/09/23 13:45:25;;;;;;;3.13;2.10;;;;;;;;;;5071419;28;20375;-92
2022/09/23 13:47:53;;;;;;;2.80;2.20;;;;;;;;;;5071346;28;20877;-89
2022/09/23 13:50:21;;;;;;;2.30;2.10;;;;;;;;;;5073315;28;20388;-91
2022/09/23 13:52:52;;;;;;;5.45;2.40;;;;;;;;;;5074337;28;20429;-89
2022/09/23 13:55:25;;;;;;;3.63;2.10;;;;;;;;;;5074993;28;20430;-89
2022/09/23 13:58:10;;;;;;;6.43;1.98;;;;;;;;;;5074813;28;20372;-90
2022/09/23 14:00:37;;;;;;;4.63;2.30;;;;;;;;;;5072095;28;20390;-91
2022/09/23 14:03:15;;;;;;;7.27;1.80;;;;;;;;;;5074891;28;20891;-89
2022/09/23 14:05:42;;;;;;;3.78;2.30;;;;;;;;;;5074904;28;20403;-89
2022/09/23 14:08:08;;;;;;;4.60;2.38;;;;;;;;;;5075053;28;20423;-90
2022/09/23 14:10:35;;;;;;;2.23;1.93;;;;;;;;;;5074981;28;20380;-89
2022/09/23 14:13:01;;;;;;;5.78;2.58;;;;;;;;;;5074910;28;20457;-91
2022/09/23 14:15:27;;;;;;;5.68;2.10;;;;;;;;;;5074445;28;20501;-90
2022/09/23 14:18:05;;;;;;;5.75;2.03;;;;;;;;;;5074794;28;20368;-90
2022/09/23 14:20:31;;;;;;;3.03;2.30;;;;;;;;;;5074352;28;20383;-92
2022/09/23 14:23:06;;;;;;;4.57;2.10;;;;;;;;;;5074345;28;20388;-90
2022/09/23 14:25:33;;;;;;;5.32;2.15;;;;;;;;;;5074793;28;20414;-91
2022/09/23 14:28:00;;;;;;;4.83;2.10;;;;;;;;;;5074055;28;20399;-90
2022/09/23 14:30:26;;;;;;;3.90;1.90;;;;;;;;;;5055876;28;20745;-90
2022/09/23 14:32:52;;;;;;;2.55;2.13;;;;;;;;;;5074449;28;20414;-89
2022/09/23 14:35:20;;;;;;;4.82;2.00;;;;;;;;;;5077049;28;20441;-92
2022/09/23 14:40:32;;;;;;;2.72;2.00;;;;;;;;;;5013293;28;20725;-89
2022/09/23 14:43:14;;;;;;;4.43;2.40;;;;;;;;;;5074424;28;20376;-89
2022/09/23 14:45:49;;;;;;;4.78;2.00;;;;;;;;;;5074332;28;20375;-90
2022/09/23 14:48:41;;;;;;;2.67;2.20;;;;;;;;;;5065156;28;20415;-90
2022/09/23 14:51:13;;;;;;;2.95;2.10;;;;;;;;;;5012199;28;20392;-90
2022/09/23 14:56:41;;;;;;;3.95;2.47;;;;;;;;;;5061380;28;20475;-90
2022/09/23 14:59:24;;;;;;;3.92;2.40;;;;;;;;;;5066093;28;20506;-85
2022/09/23 15:01:50;;;;;;;2.83;2.20;;;;;;;;;;5054473;28;20776;-85
2022/09/23 15:04:17;;;;;;;3.20;2.30;;;;;;;;;;5073791;28;20458;-86
2022/09/23 15:06:54;;;;;;;3.92;2.40;;;;;;;;;;5068592;28;20417;-86
2022/09/23 15:09:22;;;;;;;3.10;2.00;;;;;;;;;;5073681;28;20387;-91
2022/09/23 15:11:50;;;;;;;3.08;2.10;;;;;;;;;;5067258;28;20882;-87
2022/09/23 15:14:17;;;;;;;2.90;2.28;;;;;;;;;;5071012;28;20832;-87
2022/09/23 15:16:45;;;;;;;4.57;2.08;;;;;;;;;;5074003;28;20372;-86
2022/09/23 15:19:15;;;;;;;3.72;2.95;;;;;;;;;;5068086;28;20384;-86
2022/09/23 15:21:43;;;;;;;8.25;6.22;;;;;;;;;;5072832;28;20376;-88
2022/09/23 15:24:44;;;;;;;10.63;4.22;;;;;;;;;;5071680;28;20380;-87
2022/09/23 15:27:27;;;;;;;9.30;5.60;;;;;;;;;;4990849;28;20395;-86
2022/09/23 15:29:54;;;;;;;17.52;10.20;;;;;;;;;;5066318;28;20388;-85
2022/09/23 15:32:21;;;;;;;14.20;9.40;;;;;;;;;;5072435;28;20399;-85
2022/09/23 15:34:50;;;;;;;11.67;6.53;;;;;;;;;;5071871;28;20415;-84
2022/09/23 15:37:16;;;;;;;5.22;4.43;;;;;;;;;;5073275;28;20376;-84
2022/09/23 15:39:42;;;;;;;4.20;3.08;;;;;;;;;;5058320;28;20757;-84
2022/09/23 15:42:09;;;;;;;6.60;3.58;;;;;;;;;;5055803;28;20388;-84
2022/09/23 15:44:36;;;;;;;7.10;4.15;;;;;;;;;;5055095;28;20392;-84
2022/09/23 15:47:03;;;;;;;10.30;7.10;;;;;;;;;;5071960;28;20941;-84
2022/09/23 15:49:34;;;;;;;13.32;9.48;;;;;;;;;;5073005;28;20788;-84
2022/09/23 15:52:01;;;;;;;17.05;11.35;;;;;;;;;;5072874;28;20814;-84
2022/09/23 15:54:31;;;;;;;17.67;10.98;;;;;;;;;;5072583;28;20392;-85
2022/09/23 15:56:57;;;;;;;13.55;8.77;;;;;;;;;;5072836;28;20404;-85
2022/09/23 15:59:23;;;;;;;12.82;6.82;;;;;;;;;;5072751;28;20402;-85
2022/09/23 16:01:51;;;;;;;11.25;8.43;;;;;;;;;;5072447;28;20928;-84
2022/09/23 16:04:17;;;;;;;15.00;11.48;;;;;;;;;;5072820;28;20388;-85
2022/09/23 16:06:51;;;;;;;9.57;8.57;;;;;;;;;;5077060;28;20379;-84
2022/09/23 16:09:19;;;;;;;5.82;4.32;;;;;;;;;;5072131;28;20856;-85
2022/09/23 16:12:14;;;;;;;;;;;;;;;;;;;;;
2022/09/23 16:15:06;;;;;;;5.22;3.03;;;;;;;;;;5075153;28;20846;-85
2022/09/23 16:18:42;;;;;;;4.28;3.13;;;;;;;;;;5071582;28;20392;-85
2022/09/23 16:23:59;;;;;;;4.75;3.47;;;;;;;;;;5031958;28;20425;-86
2022/09/23 16:26:47;;;;;;;;;;;;;;;;;;;;;
2022/09/23 16:29:22;;;;;;;4.05;3.00;;;;;;;;;;5066377;28;20392;-85
2022/09/23 16:39:03;;;;;;;4.40;2.90;;;;;;;;;;4988653;28;20397;-85
2022/09/23 16:41:48;;;;;;;;;;;;;;;;;;;;;
2022/09/23 16:47:45;;;;;;;6.70;3.90;;;;;;;;;;5066896;28;20358;-85
2022/09/23 16:50:22;;;;;;;5.20;3.90;;;;;;;;;;5069751;28;20372;-85
2022/09/23 16:53:25;;;;;;;5.43;3.70;;;;;;;;;;5071560;28;20395;-86
2022/09/23 16:56:24;;;;;;;5.40;2.90;;;;;;;;;;5067667;28;20376;-85
2022/09/23 16:58:56;;;;;;;4.60;3.10;;;;;;;;;;5010183;28;20801;-86
2022/09/23 17:04:23;;;;;;;5.30;3.33;;;;;;;;;;5068447;28;20398;-88
2022/09/23 17:06:50;;;;;;;4.70;4.30;;;;;;;;;;5067914;28;20418;-86
2022/09/23 17:09:29;;;;;;;5.22;4.53;;;;;;;;;;5071749;28;20872;-87
2022/09/23 17:11:56;;;;;;;6.78;4.50;;;;;;;;;;5069619;28;20399;-86
2022/09/23 17:14:22;;;;;;;7.63;4.20;;;;;;;;;;5070007;28;20371;-87
2022/09/23 17:16:48;;;;;;;6.57;4.40;;;;;;;;;;5071587;28;20386;-85
2022/09/23 17:19:14;;;;;;;7.93;4.47;;;;;;;;;;5071429;28;20392;-86
2022/09/23 17:21:41;;;;;;;4.27;3.83;;;;;;;;;;5070820;28;20466;-87
2022/09/23 17:24:07;;;;;;;4.27;3.87;;;;;;;;;;5052570;28;20879;-86
2022/09/23 17:26:33;;;;;;;4.55;3.58;;;;;;;;;;5075911;28;20406;-87
2022/09/23 17:29:00;;;;;;;4.57;3.58;;;;;;;;;;5067350;28;20456;-90
2022/09/23 17:31:42;;;;;;;;;;;;;;;;;;;;;
2022/09/23 17:34:46;;;;;;;6.90;3.40;;;;;;;;;;5067364;28;20376;-91
2022/09/23 17:37:45;;;;;;;8.95;3.63;;;;;;;;;;5014928;28;20392;-90
2022/09/23 17:40:43;;;;;;;10.07;5.33;;;;;;;;;;5012100;28;20388;-90
2022/09/23 17:43:38;;;;;;;;;;;;;;;;;;;;;
2022/09/23 17:55:15;;;;;;;;;;;;;;;;;;;;;
2022/09/23 18:07:30;;;;;;;6.20;3.70;;;;;;;;;;4918060;29;20733;-90
2022/09/23 18:09:56;;;;;;;5.32;3.78;;;;;;;;;;4934917;29;20475;-92
2022/09/23 18:16:09;;;;;;;4.18;3.40;;;;;;;;;;4980748;28;20392;-90
2022/09/23 18:22:09;;;;;;;4.65;3.90;;;;;;;;;;4978100;28;20467;-91
2022/09/23 18:24:38;;;;;;;5.63;3.63;;;;;;;;;;5038833;22;20502;-80
2022/09/23 18:27:05;;;;;;;9.02;4.65;;;;;;;;;;5085752;28;20862;-78
2022/09/23 18:29:32;;;;;;;6.93;3.70;;;;;;;;;;5096649;28;20406;-78
2022/09/23 18:32:10;;;;;;;4.57;3.70;;;;;;;;;;5083142;28;20483;-78
2022/09/23 18:34:36;;;;;;;8.20;4.05;;;;;;;;;;5082556;28;20379;-80
2022/09/23 18:37:02;;;;;;;7.25;4.70;;;;;;;;;;5073557;28;20380;-81
2022/09/23 18:42:31;;;;;;;9.23;4.97;;;;;;;;;;5074522;28;20364;-78
2022/09/23 18:44:57;;;;;;;4.47;4.07;;;;;;;;;;5074489;28;20387;-79
2022/09/23 18:52:59;;;;;;;4.20;3.80;;;;;;;;;;4992012;28;20405;-80
2022/09/23 18:55:26;;;;;;;3.58;3.20;;;;;;;;;;4991781;28;20901;-80
2022/09/23 18:57:52;;;;;;;3.70;3.35;;;;;;;;;;5014252;28;20380;-80
2022/09/23 19:00:18;;;;;;;12.60;4.03;;;;;;;;;;5065784;28;20391;-80
2022/09/23 19:02:44;;;;;;;3.75;3.35;;;;;;;;;;5065842;28;20403;-81
2022/09/23 19:05:10;;;;;;;5.15;3.60;;;;;;;;;;5070122;28;20401;-82
2022/09/23 19:07:36;;;;;;;7.00;3.65;;;;;;;;;;5071650;28;20860;-82
2022/09/23 19:13:06;;;;;;;6.30;3.85;;;;;;;;;;5061836;28;20930;-82
2022/09/23 19:15:32;;;;;;;6.25;3.95;;;;;;;;;;5066025;28;20407;-82
2022/09/23 19:17:58;;;;;;;4.40;4.00;;;;;;;;;;5067960;28;20388;-82
2022/09/23 19:20:24;;;;;;;5.55;3.65;;;;;;;;;;5068622;28;20418;-81
2022/09/23 19:22:50;;;;;;;4.43;3.78;;;;;;;;;;5069616;28;20380;-82
2022/09/23 19:25:16;;;;;;;4.18;3.40;;;;;;;;;;5066679;28;20895;-82
2022/09/23 19:27:42;;;;;;;4.57;3.67;;;;;;;;;;5063392;28;20405;-82
2022/09/23 19:30:10;;;;;;;4.80;4.30;;;;;;;;;;5071509;28;20950;-82
2022/09/23 19:32:36;;;;;;;5.50;4.93;;;;;;;;;;5065800;28;20407;-81
2022/09/23 19:35:02;;;;;;;6.30;5.68;;;;;;;;;;5064225;28;20410;-82
2022/09/23 19:37:28;;;;;;;6.40;5.80;;;;;;;;;;5073128;28;20463;-82
2022/09/23 19:39:54;;;;;;;6.88;6.18;;;;;;;;;;5070996;28;20859;-82
2022/09/23 19:42:20;;;;;;;6.87;6.27;;;;;;;;;;5072110;28;20375;-82
2022/09/23 19:44:46;;;;;;;6.43;5.82;;;;;;;;;;5070913;28;20736;-82
2022/09/23 19:47:16;;;;;;;6.65;6.05;;;;;;;;;;5071561;28;20383;-82
2022/09/23 19:49:42;;;;;;;7.40;6.18;;;;;;;;;;5073186;28;20380;-82
2022/09/23 19:52:08;;;;;;;6.40;5.90;;;;;;;;;;5071483;28;20415;-82
2022/09/23 19:54:34;;;;;;;6.88;6.20;;;;;;;;;;5083988;28;20449;-82
2022/09/23 19:57:00;;;;;;;6.85;6.25;;;;;;;;;;5074126;28;20394;-82
2022/09/23 19:59:27;;;;;;;6.97;6.37;;;;;;;;;;5073052;28;20380;-82
2022/09/23 20:01:53;;;;;;;6.43;5.82;;;;;;;;;;5072711;28;20376;-82
2022/09/23 20:04:19;;;;;;;6.57;5.95;;;;;;;;;;5072769;28;20775;-82
2022/09/23 20:06:46;;;;;;;6.73;6.13;;;;;;;;;;4990730;28;20389;-82
2022/09/23 20:09:12;;;;;;;6.40;5.80;;;;;;;;;;4990864;28;20459;-82
2022/09/23 20:11:39;;;;;;;6.80;6.00;;;;;;;;;;5002454;28;20855;-82
2022/09/23 20:14:05;;;;;;;8.13;5.80;;;;;;;;;;5072726;28;20486;-82
2022/09/23 20:16:32;;;;;;;6.13;5.63;;;;;;;;;;5073014;28;20463;-82
2022/09/23 20:18:59;;;;;;;7.10;6.40;;;;;;;;;;4971353;28;20380;-82
2022/09/23 20:21:27;;;;;;;8.52;7.72;;;;;;;;;;4971371;28;20869;-82
2022/09/23 20:23:52;;;;;;;7.68;6.97;;;;;;;;;;5072840;28;20415;-82
2022/09/23 20:29:03;;;;;;;6.30;5.70;;;;;;;;;;5072661;28;20407;-81
2022/09/23 20:31:30;;;;;;;5.85;5.35;;;;;;;;;;5072656;28;20634;-82
2022/09/23 20:33:57;;;;;;;7.20;5.47;;;;;;;;;;5072486;28;20399;-82
2022/09/23 20:36:24;;;;;;;6.13;5.45;;;;;;;;;;5072449;28;20383;-82
2022/09/23 20:38:56;;;;;;;6.22;5.63;;;;;;;;;;5072702;28;20379;-82
2022/09/23 20:41:22;;;;;;;6.63;5.93;;;;;;;;;;5072537;28;20371;-81
2022/09/23 20:43:52;;;;;;;7.68;6.18;;;;;;;;;;5072703;28;20771;-81
2022/09/23 20:46:18;;;;;;;6.88;5.82;;;;;;;;;;5073001;28;20386;-82
2022/09/23 20:48:46;;;;;;;8.50;6.53;;;;;;;;;;5073057;28;20462;-81
2022/09/23 20:51:12;;;;;;;7.47;6.68;;;;;;;;;;5072581;28;20463;-81
2022/09/23 20:53:38;;;;;;;7.18;6.30;;;;;;;;;;5072627;28;20494;-82
2022/09/23 20:56:04;;;;;;;6.85;6.15;;;;;;;;;;4990131;28;20387;-82
2022/09/23 20:58:34;;;;;;;7.25;5.47;;;;;;;;;;5035139;28;20376;-82
2022/09/23 21:01:04;;;;;;;8.65;5.80;;;;;;;;;;5072853;28;20511;-81
2022/09/23 21:03:31;;;;;;;6.32;5.72;;;;;;;;;;5073334;28;20415;-81
2022/09/23 21:06:00;;;;;;;5.90;5.40;;;;;;;;;;5072281;28;20376;-83
2022/09/23 21:08:26;;;;;;;6.38;5.78;;;;;;;;;;5072396;28;20455;-82
2022/09/23 21:10:53;;;;;;;7.53;6.20;;;;;;;;;;5073164;28;20380;-83
2022/09/23 21:13:19;;;;;;;6.95;6.28;;;;;;;;;;5073192;28;20453;-82
2022/09/23 21:15:45;;;;;;;5.72;5.25;;;;;;;;;;5072237;28;20429;-81
2022/09/23 21:18:11;;;;;;;5.80;5.10;;;;;;;;;;5072700;28;20376;-81
2022/09/23 21:20:37;;;;;;;6.53;5.88;;;;;;;;;;5064879;28;20417;-80
2022/09/23 21:23:05;;;;;;;5.93;5.33;;;;;;;;;;5063257;28;20493;-82